createdAt,value
2022-11-19T00:01:15.420Z,97381.04
2022-11-19T00:03:51.191Z,97384.35
2022-11-19T00:06:24.927Z,97386.49
2022-11-19T00:08:55.742Z,97385.59
2022-11-19T00:11:41.630Z,97383.61
2022-11-19T00:14:13.260Z,97384.36
2022-11-19T00:16:45.336Z,97383.04
2022-11-19T00:19:16.147Z,97380.70
2022-11-19T00:21:46.712Z,97383.41
2022-11-19T00:24:17.068Z,97386.24
2022-11-19T00:26:47.438Z,97389.05
2022-11-19T00:29:18.372Z,97390.98
2022-11-19T00:31:48.802Z,97390.68
2022-11-19T00:34:19.173Z,97390.91
2022-11-19T00:36:49.504Z,97392.00
2022-11-19T00:39:20.942Z,97393.27
2022-11-19T00:41:51.717Z,97398.63
2022-11-19T00:44:22.111Z,97396.63
2022-11-19T00:46:52.621Z,97405.58
2022-11-19T00:49:23.180Z,97406.32
2022-11-19T00:51:53.684Z,97406.22
2022-11-19T00:54:24.056Z,97405.06
2022-11-19T00:56:54.398Z,97406.99
2022-11-19T00:59:24.829Z,97408.58
2022-11-19T01:01:55.416Z,97410.51
2022-11-19T01:04:25.962Z,97408.98
2022-11-19T01:06:56.710Z,97411.06
2022-11-19T01:09:29.545Z,97409.38
2022-11-19T01:12:00.216Z,97409.04
2022-11-19T01:14:30.626Z,97412.85
2022-11-19T01:17:01.027Z,97416.35
2022-11-19T01:19:31.576Z,97414.53
2022-11-19T01:22:02.214Z,97417.46
2022-11-19T01:24:32.984Z,97417.84
2022-11-19T01:27:03.531Z,97418.01
2022-11-19T01:29:33.866Z,97423.81
2022-11-19T01:32:04.438Z,97424.88
2022-11-19T01:34:34.948Z,97427.83
2022-11-19T01:37:05.336Z,97427.69
2022-11-19T01:39:35.664Z,97427.67
2022-11-19T01:42:26.285Z,97430.23
2022-11-19T01:45:03.667Z,97427.66
2022-11-19T01:47:34.241Z,97424.90
2022-11-19T01:50:05.156Z,97428.00
2022-11-19T01:52:35.780Z,97431.60
2022-11-19T01:55:07.126Z,97433.83
2022-11-19T01:57:38.094Z,97433.15
2022-11-19T02:00:11.633Z,97434.20
2022-11-19T02:02:42.053Z,97433.21
2022-11-19T02:05:12.865Z,97432.05
2022-11-19T02:07:46.479Z,97434.85
2022-11-19T02:10:16.959Z,97432.84
2022-11-19T02:12:52.204Z,97431.81
2022-11-19T02:15:30.947Z,97433.39
2022-11-19T02:18:15.447Z,97432.72
2022-11-19T02:20:57.464Z,97437.20
2022-11-19T02:24:15.204Z,97433.97
2022-11-19T02:27:16.409Z,97436.41
2022-11-19T02:30:13.596Z,97440.90
2022-11-19T02:32:51.320Z,97441.48
2022-11-19T02:35:33.127Z,97444.60
2022-11-19T02:38:07.391Z,97446.34
2022-11-19T02:40:39.746Z,97442.27
2022-11-19T02:43:14.595Z,97439.36
2022-11-19T02:45:47.898Z,97438.17
2022-11-19T02:48:21.071Z,97440.92
2022-11-19T02:50:54.682Z,97445.88
2022-11-19T02:53:25.097Z,97444.69
2022-11-19T02:56:13.742Z,97445.36
2022-11-19T02:59:05.891Z,97456.84
2022-11-19T03:01:57.477Z,97456.18
2022-11-19T03:04:31.092Z,97457.73
2022-11-19T03:07:05.817Z,97456.89
2022-11-19T03:09:40.051Z,97459.29
2022-11-19T03:12:15.243Z,97456.73
2022-11-19T03:15:12.289Z,97459.31
2022-11-19T03:17:58.871Z,97466.85
2022-11-19T03:20:33.591Z,97469.75
2022-11-19T03:23:09.222Z,97469.92
2022-11-19T03:25:41.800Z,97482.27
2022-11-19T03:28:15.613Z,97482.10
2022-11-19T03:30:47.331Z,97487.09
2022-11-19T03:33:22.339Z,97486.91
2022-11-19T03:35:55.088Z,97484.19
2022-11-19T03:38:28.064Z,97491.39
2022-11-19T03:40:57.729Z,97489.17
2022-11-19T03:43:30.412Z,97491.92
2022-11-19T03:46:04.000Z,97489.37
2022-11-19T03:48:34.794Z,97493.98
2022-11-19T03:51:08.494Z,97495.54
2022-11-19T03:53:39.628Z,97495.72
2022-11-19T03:56:13.145Z,97497.61
2022-11-19T03:58:46.935Z,97500.01
2022-11-19T04:01:19.075Z,97502.92
2022-11-19T04:04:04.634Z,97503.09
2022-11-19T04:06:36.748Z,97504.46
2022-11-19T04:09:08.666Z,97501.22
2022-11-19T04:11:40.936Z,97506.52
2022-11-19T04:14:13.079Z,97504.64
2022-11-19T04:16:44.983Z,97503.80
2022-11-19T04:19:18.082Z,97505.16
2022-11-19T04:21:50.503Z,97506.36
2022-11-19T04:24:22.690Z,97511.31
2022-11-19T04:26:56.016Z,97512.33
2022-11-19T04:29:27.695Z,97510.80
2022-11-19T04:32:00.016Z,97511.47
2022-11-19T04:34:31.553Z,97511.30
2022-11-19T04:37:03.427Z,97514.54
2022-11-19T04:39:35.719Z,97515.39
2022-11-19T04:42:08.907Z,97516.08
2022-11-19T04:44:41.772Z,97516.74
2022-11-19T04:47:15.066Z,97519.30
2022-11-19T04:49:46.794Z,97516.55
2022-11-19T04:52:18.394Z,97520.66
2022-11-19T04:54:50.999Z,97521.51
2022-11-19T04:57:23.065Z,97520.99
2022-11-19T05:08:11.095Z,97545.36
2022-11-19T05:10:41.624Z,97547.90
2022-11-19T05:13:12.016Z,97547.54
2022-11-19T05:15:42.568Z,97543.06
2022-11-19T05:18:13.056Z,97546.10
2022-11-19T05:20:43.567Z,97551.19
2022-11-19T05:23:13.968Z,97553.20
2022-11-19T05:25:44.425Z,97554.02
2022-11-19T05:28:14.966Z,97551.41
2022-11-19T05:30:45.348Z,97551.55
2022-11-19T05:33:15.787Z,97558.03
2022-11-19T05:35:46.129Z,97557.33
2022-11-19T05:38:16.515Z,97555.08
2022-11-19T05:40:47.512Z,97556.61
2022-11-19T05:43:17.862Z,97560.52
2022-11-19T05:45:48.210Z,97561.54
2022-11-19T05:48:18.545Z,97568.34
2022-11-19T05:50:48.913Z,97566.47
2022-11-19T05:53:19.294Z,97564.58
2022-11-19T05:55:49.653Z,97570.48
2022-11-19T05:58:20.022Z,97573.22
2022-11-19T06:00:51.209Z,97571.85
2022-11-19T06:03:21.548Z,97577.99
2022-11-19T06:05:51.957Z,97579.20
2022-11-19T06:08:22.343Z,97578.86
2022-11-19T06:10:52.722Z,97577.14
2022-11-19T06:13:23.133Z,97580.70
2022-11-19T06:15:53.492Z,97582.40
2022-11-19T06:18:23.835Z,97584.97
2022-11-19T06:20:54.521Z,97582.73
2022-11-19T06:23:24.859Z,97589.05
2022-11-19T06:25:56.327Z,97589.70
2022-11-19T06:28:26.730Z,97596.31
2022-11-19T06:30:57.109Z,97600.39
2022-11-19T06:33:27.449Z,97601.42
2022-11-19T06:35:57.843Z,97602.61
2022-11-19T06:38:28.177Z,97598.69
2022-11-19T06:40:58.525Z,97601.77
2022-11-19T06:43:29.004Z,97608.77
2022-11-19T06:45:59.459Z,97608.75
2022-11-19T06:48:30.116Z,97603.65
2022-11-19T06:51:01.564Z,97606.20
2022-11-19T06:53:32.961Z,97609.77
2022-11-19T06:56:04.798Z,97604.31
2022-11-19T06:58:35.566Z,97610.79
2022-11-19T07:01:06.414Z,97615.58
2022-11-19T07:03:36.782Z,97620.53
2022-11-19T07:06:07.743Z,97626.50
2022-11-19T07:08:39.373Z,97626.19
2022-11-19T07:11:23.746Z,97624.15
2022-11-19T07:14:03.936Z,97627.05
2022-11-19T07:16:35.769Z,97630.47
2022-11-19T07:19:07.830Z,97630.47
2022-11-19T07:21:38.685Z,97632.16
2022-11-19T07:24:10.584Z,97628.56
2022-11-19T07:26:41.124Z,97626.70
2022-11-19T07:29:13.942Z,97627.39
2022-11-19T07:31:46.793Z,97629.79
2022-11-19T07:34:17.579Z,97634.89
2022-11-19T07:36:48.497Z,97635.58
2022-11-19T07:39:19.020Z,97634.54
2022-11-19T07:42:07.218Z,97636.37
2022-11-19T07:44:37.655Z,97636.52
2022-11-19T07:47:08.956Z,97638.75
2022-11-19T07:49:39.344Z,97642.02
2022-11-19T07:52:09.739Z,97646.63
2022-11-19T07:54:40.100Z,97647.83
2022-11-19T07:57:11.924Z,97650.04
2022-11-19T07:59:42.291Z,97653.14
2022-11-19T08:02:16.314Z,97653.83
2022-11-19T08:04:46.757Z,97655.00
2022-11-19T08:07:17.205Z,97657.55
2022-11-19T08:09:47.826Z,97662.83
2022-11-19T08:12:18.193Z,97665.39
2022-11-19T08:14:48.586Z,97664.70
2022-11-19T08:17:36.649Z,97666.91
2022-11-19T08:20:08.683Z,97670.81
2022-11-19T08:22:41.094Z,97672.16
2022-11-19T08:25:11.776Z,97675.39
2022-11-19T08:27:42.146Z,97678.61
2022-11-19T08:30:14.059Z,97677.07
2022-11-19T08:32:44.495Z,97675.70
2022-11-19T08:35:14.923Z,97677.07
2022-11-19T08:37:54.139Z,97679.79
2022-11-19T08:40:25.108Z,97683.53
2022-11-19T08:43:01.450Z,97686.95
2022-11-19T08:45:35.658Z,97696.17
2022-11-19T08:48:10.301Z,97692.09
2022-11-19T08:50:42.546Z,97701.10
2022-11-19T08:53:12.990Z,97698.17
2022-11-19T08:55:43.337Z,97701.56
2022-11-19T08:58:14.117Z,97703.09
2022-11-19T09:00:44.679Z,97711.05
2022-11-19T09:03:15.237Z,97710.54
2022-11-19T09:05:45.561Z,97712.05
2022-11-19T09:08:15.917Z,97708.11
2022-11-19T09:10:46.291Z,97710.50
2022-11-19T09:13:16.953Z,97709.67
2022-11-19T09:15:50.077Z,97709.90
2022-11-19T09:18:20.742Z,97716.58
2022-11-19T09:20:55.997Z,97723.23
2022-11-19T09:23:27.632Z,97719.66
2022-11-19T09:26:00.800Z,97725.30
2022-11-19T09:28:32.198Z,97726.37
2022-11-19T09:31:04.667Z,97722.65
2022-11-19T09:33:36.630Z,97725.54
2022-11-19T09:36:07.885Z,97731.52
2022-11-19T09:38:39.247Z,97733.23
2022-11-19T09:41:23.108Z,97733.27
2022-11-19T09:43:58.709Z,97735.84
2022-11-19T09:46:33.707Z,97739.94
2022-11-19T09:49:07.063Z,97740.97
2022-11-19T09:51:40.196Z,97745.45
2022-11-19T09:54:15.455Z,97743.43
2022-11-19T09:56:47.182Z,97739.21
2022-11-19T09:59:25.028Z,97738.38
2022-11-19T10:01:55.650Z,97742.42
2022-11-19T10:04:27.938Z,97744.64
2022-11-19T10:07:06.369Z,97743.33
2022-11-19T10:09:45.871Z,97746.77
2022-11-19T10:12:26.347Z,97745.55
2022-11-19T10:15:13.735Z,97740.08
2022-11-19T10:17:53.498Z,97741.77
2022-11-19T10:20:44.439Z,97741.61
2022-11-19T10:23:20.713Z,97740.63
2022-11-19T10:25:53.964Z,97740.27
2022-11-19T10:28:26.903Z,97741.99
2022-11-19T10:30:56.777Z,97746.30
2022-11-19T10:33:30.662Z,97746.00
2022-11-19T10:36:03.315Z,97751.48
2022-11-19T10:38:37.423Z,97744.52
2022-11-19T10:41:13.693Z,97740.28
2022-11-19T10:43:48.593Z,97739.34
2022-11-19T10:46:23.389Z,97738.55
2022-11-19T10:48:55.652Z,97745.93
2022-11-19T10:51:28.884Z,97742.04
2022-11-19T10:53:59.595Z,97738.98
2022-11-19T10:56:37.859Z,97740.70
2022-11-19T10:59:12.519Z,97742.77
2022-11-19T11:01:45.792Z,97738.48
2022-11-19T11:04:20.754Z,97744.15
2022-11-19T11:06:56.061Z,97750.31
2022-11-19T11:09:37.455Z,97754.05
2022-11-19T11:12:31.438Z,97749.59
2022-11-19T11:15:14.838Z,97753.48
2022-11-19T11:17:46.712Z,97755.35
2022-11-19T11:20:28.279Z,97755.45
2022-11-19T11:23:07.629Z,97754.54
2022-11-19T11:25:38.936Z,97753.51
2022-11-19T11:28:11.956Z,97746.48
2022-11-19T11:30:40.863Z,97744.21
2022-11-19T11:33:28.621Z,97742.83
2022-11-19T11:36:00.409Z,97745.23
2022-11-19T11:38:31.660Z,97745.91
2022-11-19T11:41:53.364Z,97741.63
2022-11-19T11:44:05.702Z,97742.34
2022-11-19T11:46:42.436Z,97740.13
2022-11-19T11:49:31.367Z,97742.55
2022-11-19T11:52:16.930Z,97738.14
2022-11-19T11:55:01.834Z,97742.07
2022-11-19T11:57:34.038Z,97739.86
2022-11-19T12:00:07.940Z,97741.05
2022-11-19T12:02:38.397Z,97734.08
2022-11-19T12:05:15.202Z,97740.71
2022-11-19T12:07:56.787Z,97738.16
2022-11-19T12:10:32.664Z,97736.82
2022-11-19T12:13:28.292Z,97736.67
2022-11-19T12:16:04.875Z,97726.80
2022-11-19T12:18:40.488Z,97733.80
2022-11-19T12:21:12.660Z,97738.90
2022-11-19T12:23:57.060Z,97742.64
2022-11-19T12:26:32.178Z,97745.55
2022-11-19T12:29:11.054Z,97744.34
2022-11-19T12:32:00.407Z,97746.56
2022-11-19T12:34:47.692Z,97740.58
2022-11-19T12:37:27.781Z,97741.79
2022-11-19T12:40:05.378Z,97746.59
2022-11-19T12:42:46.100Z,97741.80
2022-11-19T12:45:25.543Z,97739.08
2022-11-19T12:48:17.744Z,97742.33
2022-11-19T12:50:54.223Z,97744.38
2022-11-19T12:53:31.222Z,97748.45
2022-11-19T12:56:09.099Z,97751.35
2022-11-19T12:58:47.908Z,97752.60
2022-11-19T13:01:21.125Z,97756.54
2022-11-19T13:04:01.542Z,97757.88
2022-11-19T13:06:36.919Z,97753.58
2022-11-19T13:09:10.569Z,97752.55
2022-11-19T13:11:45.776Z,97746.90
2022-11-19T13:14:33.397Z,97741.95
2022-11-19T13:17:05.707Z,97741.77
2022-11-19T13:19:39.105Z,97739.02
2022-11-19T13:22:14.916Z,97742.44
2022-11-19T13:24:48.301Z,97744.13
2022-11-19T13:27:23.314Z,97745.52
2022-11-19T13:29:57.862Z,97747.89
2022-11-19T13:32:31.191Z,97741.91
2022-11-19T13:35:11.415Z,97737.83
2022-11-19T13:37:47.878Z,97744.66
2022-11-19T13:40:24.498Z,97746.73
2022-11-19T13:46:09.679Z,97748.76
2022-11-19T13:48:42.980Z,97746.01
2022-11-19T13:51:19.204Z,97747.20
2022-11-19T13:53:49.660Z,97746.52
2022-11-19T13:56:21.572Z,97746.87
2022-11-19T13:58:53.944Z,97743.63
2022-11-19T14:01:41.085Z,97738.98
2022-11-19T14:04:28.062Z,97744.95
2022-11-19T14:07:08.580Z,97742.71
2022-11-19T14:09:44.030Z,97744.57
2022-11-19T14:12:32.918Z,97750.35
2022-11-19T14:21:52.210Z,97756.99
2022-11-19T14:24:55.550Z,97761.38
2022-11-19T14:27:27.172Z,97763.23
2022-11-19T14:30:05.195Z,97768.28
2022-11-19T14:32:46.413Z,97771.37
2022-11-19T14:35:37.951Z,97772.91
2022-11-19T14:38:37.716Z,97776.65
2022-11-19T14:41:22.384Z,97776.98
2022-11-19T14:44:11.775Z,97776.65
2022-11-19T14:46:52.765Z,97778.88
2022-11-19T14:49:34.391Z,97778.21
2022-11-19T14:52:16.399Z,97779.39
2022-11-19T14:54:52.350Z,97781.79
2022-11-19T14:57:29.697Z,97779.54
2022-11-19T15:00:02.107Z,97779.38
2022-11-19T15:02:39.391Z,97780.41
2022-11-19T15:05:21.599Z,97779.21
2022-11-19T15:07:56.115Z,97777.30
2022-11-19T15:10:31.183Z,97782.73
2022-11-19T15:13:25.699Z,97779.48
2022-11-19T15:15:58.688Z,97782.94
2022-11-19T15:18:34.966Z,97782.77
2022-11-19T15:21:22.379Z,97785.82
2022-11-19T15:24:01.612Z,97786.84
2022-11-19T15:26:37.814Z,97790.77
2022-11-19T15:29:16.672Z,97788.85
2022-11-19T15:31:57.149Z,97785.24
2022-11-19T15:35:03.935Z,97784.71
2022-11-19T15:37:40.638Z,97785.06
2022-11-19T15:40:15.984Z,97791.19
2022-11-19T15:42:51.030Z,97794.39
2022-11-19T15:45:23.940Z,97790.98
2022-11-19T15:47:53.385Z,97788.61
2022-11-19T15:50:27.211Z,97787.73
2022-11-19T15:53:01.652Z,97787.53
2022-11-19T15:55:33.135Z,97792.63
2022-11-19T15:58:07.585Z,97794.70
2022-11-19T16:00:46.623Z,97793.52
2022-11-19T16:03:17.634Z,97793.02
2022-11-19T16:06:01.185Z,97797.95
2022-11-19T16:08:31.723Z,97800.82
2022-11-19T16:11:20.960Z,97804.90
2022-11-19T16:14:12.593Z,97806.96
2022-11-19T16:17:00.414Z,97809.37
2022-11-19T16:19:30.979Z,97809.06
2022-11-19T16:22:04.134Z,97810.94
2022-11-19T16:24:51.967Z,97811.45
2022-11-19T16:27:23.982Z,97814.34
2022-11-19T16:29:54.558Z,97813.50
2022-11-19T16:32:27.799Z,97815.22
2022-11-19T16:35:12.399Z,97812.01
2022-11-19T16:37:43.104Z,97813.35
2022-11-19T16:40:17.156Z,97813.53
2022-11-19T16:42:53.089Z,97808.60
2022-11-19T16:45:25.252Z,97805.55
2022-11-19T16:47:57.431Z,97812.20
2022-11-19T16:50:32.828Z,97806.55
2022-11-19T16:53:04.251Z,97810.61
2022-11-19T16:55:43.861Z,97804.98
2022-11-19T16:58:18.482Z,97807.91
2022-11-19T17:00:50.860Z,97814.58
2022-11-19T17:03:34.304Z,97813.56
2022-11-19T17:06:05.574Z,97811.17
2022-11-19T17:08:37.435Z,97815.13
2022-11-19T17:11:36.186Z,97811.38
2022-11-19T17:14:25.178Z,97809.65
2022-11-19T17:16:55.784Z,97814.06
2022-11-19T17:19:32.428Z,97807.93
2022-11-19T17:22:04.210Z,97809.11
2022-11-19T17:24:41.498Z,97803.46
2022-11-19T17:27:14.659Z,97799.70
2022-11-19T17:29:47.702Z,97802.61
2022-11-19T17:32:18.478Z,97806.04
2022-11-19T17:34:49.676Z,97807.08
2022-11-19T17:37:20.063Z,97815.30
2022-11-19T17:39:50.344Z,97819.75
2022-11-19T17:42:38.477Z,97825.86
2022-11-19T17:45:11.528Z,97824.65
2022-11-19T17:47:40.321Z,97832.48
2022-11-19T17:50:11.291Z,97832.67
2022-11-19T17:52:41.666Z,97829.45
2022-11-19T17:55:17.786Z,97829.13
2022-11-19T17:57:48.117Z,97830.34
2022-11-19T18:00:19.041Z,97828.43
2022-11-19T18:02:49.512Z,97836.60
2022-11-19T18:05:23.112Z,97838.98
2022-11-19T18:07:55.116Z,97833.54
2022-11-19T18:10:25.817Z,97833.72
2022-11-19T18:12:56.253Z,97834.23
2022-11-19T18:15:26.716Z,97835.09
2022-11-19T18:17:57.136Z,97834.41
2022-11-19T18:20:27.502Z,97840.38
2022-11-19T18:22:57.875Z,97843.60
2022-11-19T18:25:28.483Z,97851.45
2022-11-19T18:27:58.905Z,97852.30
2022-11-19T18:30:29.308Z,97858.47
2022-11-19T18:32:59.795Z,97858.47
2022-11-19T18:35:32.564Z,97859.81
2022-11-19T18:38:02.898Z,97859.80
2022-11-19T18:40:33.372Z,97855.86
2022-11-19T18:43:21.061Z,97853.82
2022-11-19T18:45:51.486Z,97851.24
2022-11-19T18:48:21.951Z,97851.76
2022-11-19T18:50:52.766Z,97853.63
2022-11-19T18:53:23.175Z,97854.94
2022-11-19T18:55:53.728Z,97862.46
2022-11-19T18:58:24.215Z,97861.61
2022-11-19T19:00:55.881Z,97865.36
2022-11-19T19:03:26.698Z,97864.14
2022-11-19T19:05:57.409Z,97869.23
2022-11-19T19:08:27.861Z,97864.75
2022-11-19T19:11:18.418Z,97865.59
2022-11-19T19:13:49.460Z,97866.45
2022-11-19T19:16:19.870Z,97863.38
2022-11-19T19:18:50.337Z,97865.57
2022-11-19T19:21:22.620Z,97870.65
2022-11-19T19:23:53.458Z,97869.27
2022-11-19T19:26:24.852Z,97866.75
2022-11-19T19:28:57.625Z,97863.50
2022-11-19T19:31:28.211Z,97864.19
2022-11-19T19:33:58.585Z,97871.67
2022-11-19T19:36:29.128Z,97872.66
2022-11-19T19:38:59.541Z,97875.05
2022-11-19T19:41:30.404Z,97884.44
2022-11-19T19:44:05.029Z,97888.73
2022-11-19T19:46:40.724Z,97890.44
2022-11-19T19:49:34.732Z,97891.45
2022-11-19T19:52:09.809Z,97891.77
2022-11-19T19:54:42.028Z,97885.95
2022-11-19T19:57:21.589Z,97885.95
2022-11-19T19:59:52.035Z,97874.75
2022-11-19T20:02:22.453Z,97873.23
2022-11-19T20:04:52.945Z,97878.16
2022-11-19T20:07:23.680Z,97872.98
2022-11-19T20:09:54.151Z,97873.46
2022-11-19T20:12:47.030Z,97880.27
2022-11-19T20:15:18.268Z,97883.54
2022-11-19T20:17:48.882Z,97880.96
2022-11-19T20:20:19.283Z,97878.20
2022-11-19T20:22:51.788Z,97870.84
2022-11-19T20:25:22.359Z,97876.08
2022-11-19T20:27:53.240Z,97882.73
2022-11-19T20:30:31.292Z,97883.25
2022-11-19T20:33:02.209Z,97887.35
2022-11-19T20:35:45.151Z,97889.20
2022-11-19T20:38:15.558Z,97890.21
2022-11-19T20:40:46.103Z,97887.63
2022-11-19T20:43:37.371Z,97884.34
2022-11-19T20:46:12.371Z,97889.09
2022-11-19T20:48:42.954Z,97892.84
2022-11-19T20:51:15.881Z,97895.03
2022-11-19T20:53:44.951Z,97896.20
2022-11-19T20:56:15.465Z,97891.21
2022-11-19T20:58:45.985Z,97894.77
2022-11-19T21:01:16.604Z,97897.31
2022-11-19T21:03:47.087Z,97899.02
2022-11-19T21:06:19.810Z,97894.30
2022-11-19T21:08:50.435Z,97895.73
2022-11-19T21:11:20.952Z,97895.73
2022-11-19T21:13:51.538Z,97894.06
2022-11-19T21:16:24.462Z,97891.48
2022-11-19T21:18:53.484Z,97892.50
2022-11-19T21:21:25.014Z,97891.80
2022-11-19T21:23:55.903Z,97885.47
2022-11-19T21:26:27.962Z,97891.11
2022-11-19T21:29:01.540Z,97891.80
2022-11-19T21:31:39.970Z,97899.00
2022-11-19T21:34:28.591Z,97895.91
2022-11-19T21:37:00.849Z,97890.10
2022-11-19T21:39:31.465Z,97886.34
2022-11-19T21:42:01.865Z,97887.19
2022-11-19T21:44:32.462Z,97889.59
2022-11-19T21:47:03.835Z,97885.02
2022-11-19T21:49:34.897Z,97882.98
2022-11-19T21:52:05.365Z,97872.95
2022-11-19T21:54:35.755Z,97873.14
2022-11-19T21:57:06.263Z,97876.21
2022-11-19T21:59:36.649Z,97875.52
2022-11-19T22:02:15.144Z,97877.90
2022-11-19T22:04:45.611Z,97882.86
2022-11-19T22:07:16.042Z,97883.19
2022-11-19T22:09:46.746Z,97888.16
2022-11-19T22:12:17.159Z,97895.52
2022-11-19T22:14:47.551Z,97888.03
2022-11-19T22:17:17.966Z,97881.56
2022-11-19T22:19:48.369Z,97882.73
2022-11-19T22:22:18.699Z,97883.05
2022-11-19T22:24:52.155Z,97883.56
2022-11-19T22:27:22.611Z,97885.48
2022-11-19T22:29:56.568Z,97884.80
2022-11-19T22:32:27.073Z,97887.73
2022-11-19T22:34:57.611Z,97884.32
2022-11-19T22:37:28.031Z,97878.85
2022-11-19T22:39:58.395Z,97885.52
2022-11-19T22:42:29.197Z,97879.55
2022-11-19T22:44:59.940Z,97875.81
2022-11-19T22:47:31.495Z,97872.27
2022-11-19T22:50:01.887Z,97871.48
2022-11-19T22:52:32.406Z,97866.55
2022-11-19T22:55:05.084Z,97862.63
2022-11-19T22:57:35.455Z,97859.20
2022-11-19T23:00:09.836Z,97860.05
2022-11-19T23:02:40.231Z,97853.20
2022-11-19T23:05:10.935Z,97858.13
2022-11-19T23:07:41.276Z,97856.27
2022-11-19T23:10:12.387Z,97862.94
2022-11-19T23:13:05.543Z,97867.52
2022-11-19T23:15:36.091Z,97867.70
2022-11-19T23:18:06.855Z,97859.88
2022-11-19T23:20:37.275Z,97860.25
2022-11-19T23:23:07.792Z,97857.21
2022-11-19T23:25:38.131Z,97855.42
2022-11-19T23:28:08.605Z,97849.98
2022-11-19T23:30:39.075Z,97841.27
2022-11-19T23:33:09.445Z,97840.58
2022-11-19T23:35:39.851Z,97840.23
2022-11-19T23:38:10.176Z,97839.55
2022-11-19T23:40:40.596Z,97835.63
2022-11-19T23:43:11.062Z,97841.29
2022-11-19T23:45:41.509Z,97841.48
2022-11-19T23:48:11.959Z,97838.46
2022-11-19T23:50:42.475Z,97833.33
2022-11-19T23:53:12.918Z,97834.34
2022-11-19T23:55:48.090Z,97836.71
2022-11-19T23:58:18.454Z,97838.89
